Observation data for Plains on 11/17/2019      Previous  Date       Current Mesonet Observations  Soil Data  Daily Summary Page  Observations in Plain Language
KPPS 170600Z 24009KT 07/02 A2998 RMK A01 T00700024  RH  074%=      5-min Rain = 0
KPPS 170605Z 24010KT 07/02 A2998 RMK A01 T00700024  RH  074%=      5-min Rain = 0
KPPS 170610Z 24010KT 07/02 A2998 RMK A01 T00670024  RH  075%=      5-min Rain = 0
KPPS 170615Z 24011KT 07/03 A2998 RMK A01 T00720028  RH  075%=      5-min Rain = 0
KPPS 170620Z 24010KT 08/03 A2998 RMK A01 T00760030  RH  074%=      5-min Rain = 0
KPPS 170625Z 24009KT 07/03 A2998 RMK A01 T00740030  RH  075%=      5-min Rain = 0
KPPS 170630Z 24009KT 07/03 A2998 RMK A01 T00730030  RH  075%=      5-min Rain = 0
KPPS 170635Z 24009KT 07/03 A2998 RMK A01 T00700029  RH  077%=      5-min Rain = 0
KPPS 170640Z 25009KT 07/03 A2998 RMK A01 T00710031  RH  077%=      5-min Rain = 0
KPPS 170645Z 25009KT 07/03 A2998 RMK A01 T00700031  RH  077%=      5-min Rain = 0
KPPS 170650Z 25011KT 07/03 A2997 RMK A01 T00720032  RH  077%=      5-min Rain = 0
KPPS 170655Z 25010KT 07/03 A2997 RMK A01 T00730033  RH  077%=      5-min Rain = 0
KPPS 170700Z 26010KT 07/03 A2997 RMK A01 T00700032  RH  078%=      5-min Rain = 0
KPPS 170705Z 26008KT 07/03 A2997 RMK A01 T00670030  RH  079%=      5-min Rain = 0
KPPS 170710Z 26008KT 07/03 A2997 RMK A01 T00650027  RH  078%=      5-min Rain = 0
KPPS 170715Z 26008KT 06/02 A2997 RMK A01 T00600024  RH  079%=      5-min Rain = 0
KPPS 170720Z 26009KT 06/02 A2997 RMK A01 T00570024  RH  080%=      5-min Rain = 0
KPPS 170725Z 27008KT 06/02 A2997 RMK A01 T00570023  RH  080%=      5-min Rain = 0
KPPS 170730Z 27009KT 05/02 A2997 RMK A01 T00540021  RH  080%=      5-min Rain = 0
KPPS 170735Z 28009KT 06/02 A2997 RMK A01 T00550019  RH  079%=      5-min Rain = 0
KPPS 170740Z 28011KT 06/02 A2997 RMK A01 T00560017  RH  077%=      5-min Rain = 0
KPPS 170745Z 28011KT 06/02 A2997 RMK A01 T00570015  RH  075%=      5-min Rain = 0
KPPS 170750Z 28011KT 06/01 A2997 RMK A01 T00570012  RH  074%=      5-min Rain = 0
KPPS 170755Z 28012KT 06/01 A2997 RMK A01 T00570010  RH  073%=      5-min Rain = 0
KPPS 170800Z 28012KT 06/01 A2996 RMK A01 T00610009  RH  070%=      5-min Rain = 0
KPPS 170805Z 28012KT 06/01 A2997 RMK A01 T00600007  RH  070%=      5-min Rain = 0
KPPS 170810Z 28012KT 06/01 A2997 RMK A01 T00600006  RH  069%=      5-min Rain = 0
KPPS 170815Z 29010KT 06/01 A2997 RMK A01 T00580005  RH  069%=      5-min Rain = 0
KPPS 170820Z 29010KT 06/00 A2997 RMK A01 T00550004  RH  071%=      5-min Rain = 0
KPPS 170825Z 29010KT 06/00 A2997 RMK A01 T00590004  RH  069%=      5-min Rain = 0
KPPS 170830Z 30011KT 07/00 A2997 RMK A01 T00700003  RH  063%=      5-min Rain = 0
KPPS 170835Z 30011KT 08/00 A2997 RMK A01 T00820000  RH  057%=      5-min Rain = 0
KPPS 170840Z 30012G18KT 09/M00 A2997 RMK A01 T00891003  RH  053%=      5-min Rain = 0
KPPS 170845Z 31011G16KT 09/M00 A2998 RMK A01 T00871003  RH  054%=      5-min Rain = 0
KPPS 170850Z 32012G18KT 09/M00 A2998 RMK A01 T00861003  RH  054%=      5-min Rain = 0
KPPS 170855Z 33014KT 09/M00 A2998 RMK A01 T00871003  RH  054%=      5-min Rain = 0
KPPS 170900Z 34013KT 09/M00 A2999 RMK A01 T00861003  RH  054%=      5-min Rain = 0
KPPS 170905Z 34012G17KT 08/M00 A2999 RMK A01 T00801002  RH  057%=      5-min Rain = 0
KPPS 170910Z 35016KT 08/M00 A2999 RMK A01 T00761001  RH  059%=      5-min Rain = 0
KPPS 170915Z 35016KT 07/M00 A2999 RMK A01 T00741001  RH  060%=      5-min Rain = 0
KPPS 170920Z 35016G21KT 07/00 A2999 RMK A01 T007400-0  RH  060%=      5-min Rain = 0
KPPS 170925Z 00016KT 08/00 A2999 RMK A01 T00780001  RH  059%=      5-min Rain = 0
KPPS 170930Z 36016KT 08/00 A30 RMK A01 T00810001  RH  058%=      5-min Rain = 0
KPPS 170935Z 36016G21KT 08/00 A3001 RMK A01 T00840000  RH  056%=      5-min Rain = 0
KPPS 170940Z 00016G22KT 08/M00 A3001 RMK A01 T00841001  RH  055%=      5-min Rain = 0
KPPS 170945Z 36017G22KT 08/M00 A3002 RMK A01 T00841003  RH  055%=      5-min Rain = 0
KPPS 170950Z 36016KT 08/M00 A3002 RMK A01 T00821003  RH  056%=      5-min Rain = 0
KPPS 170955Z 36017G23KT 08/M00 A3002 RMK A01 T00801004  RH  056%=      5-min Rain = 0
KPPS 171000Z 36018G23KT 08/M01 A3002 RMK A01 T00801005  RH  055%=      5-min Rain = 0
KPPS 171005Z 36017KT 08/M01 A3003 RMK A01 T00801006  RH  055%=      5-min Rain = 0
KPPS 171010Z 36017G22KT 08/M01 A3003 RMK A01 T00791006  RH  055%=      5-min Rain = 0
KPPS 171015Z 36017KT 08/M01 A3004 RMK A01 T00791007  RH  055%=      5-min Rain = 0
KPPS 171020Z 35017KT 08/M01 A3004 RMK A01 T00771007  RH  055%=      5-min Rain = 0
KPPS 171025Z 36017KT 08/M01 A3004 RMK A01 T00781008  RH  055%=      5-min Rain = 0
KPPS 171030Z 36018KT 08/M01 A3005 RMK A01 T00781009  RH  055%=      5-min Rain = 0
KPPS 171035Z 36017G22KT 08/M01 A3005 RMK A01 T00781010  RH  054%=      5-min Rain = 0
KPPS 171040Z 00016G22KT 08/M01 A3005 RMK A01 T00781011  RH  054%=      5-min Rain = 0
KPPS 171045Z 36017G23KT 08/M01 A3006 RMK A01 T00781011  RH  054%=      5-min Rain = 0
KPPS 171050Z 00017G26KT 08/M01 A3006 RMK A01 T00791012  RH  053%=      5-min Rain = 0
KPPS 171055Z 00017G24KT 08/M01 A3006 RMK A01 T00821012  RH  052%=      5-min Rain = 0
KPPS 171100Z 00018G24KT 08/M01 A3006 RMK A01 T00831012  RH  052%=      5-min Rain = 0
KPPS 171105Z 00018G25KT 08/M01 A3006 RMK A01 T00831012  RH  052%=      5-min Rain = 0
KPPS 171110Z 36018G23KT 08/M01 A3006 RMK A01 T00821012  RH  052%=      5-min Rain = 0
KPPS 171115Z 36018G23KT 08/M01 A3007 RMK A01 T00801012  RH  053%=      5-min Rain = 0
KPPS 171120Z 36019G25KT 08/M01 A3007 RMK A01 T00791011  RH  053%=      5-min Rain = 0
KPPS 171125Z 36020G28KT 08/M01 A3007 RMK A01 T00781011  RH  054%=      5-min Rain = 0
KPPS 171130Z 36019G24KT 08/M01 A3007 RMK A01 T00781010  RH  054%=      5-min Rain = 0
KPPS 171135Z 36019G25KT 08/M01 A3008 RMK A01 T00761010  RH  055%=      5-min Rain = 0
KPPS 171140Z 36019G24KT 08/M01 A3008 RMK A01 T00751009  RH  056%=      5-min Rain = 0
KPPS 171145Z 00020G27KT 07/M01 A3008 RMK A01 T00741009  RH  056%=      5-min Rain = 0
KPPS 171150Z 00020G26KT 07/M01 A3009 RMK A01 T00741009  RH  056%=      5-min Rain = 0
KPPS 171155Z 00021G27KT 07/M01 A3009 RMK A01 T00731008  RH  057%=      5-min Rain = 0
KPPS 171200Z 00020G25KT 07/M01 A301 RMK A01 T00721008  RH  058%=      5-min Rain = 0
KPPS 171205Z 36018G24KT 07/M01 A301 RMK A01 T00701008  RH  058%=      5-min Rain = 0
KPPS 171210Z 36019G24KT 07/M01 A301 RMK A01 T00691008  RH  059%=      5-min Rain = 0
KPPS 171215Z 36019G25KT 07/M01 A301 RMK A01 T00671008  RH  059%=      5-min Rain = 0
KPPS 171220Z 00017G22KT 07/M01 A301 RMK A01 T00661007  RH  060%=      5-min Rain = 0
KPPS 171225Z 00017G23KT 07/M01 A3011 RMK A01 T00651007  RH  061%=      5-min Rain = 0
KPPS 171230Z 00016G21KT 06/M01 A3011 RMK A01 T00641007  RH  061%=      5-min Rain = 0
KPPS 171235Z 36017KT 06/M01 A3011 RMK A01 T00631007  RH  062%=      5-min Rain = 0
KPPS 171240Z 00018G24KT 06/M01 A3012 RMK A01 T00621006  RH  062%=      5-min Rain = 0
KPPS 171245Z 00018G24KT 06/M01 A3012 RMK A01 T00621006  RH  062%=      5-min Rain = 0
KPPS 171250Z 00016KT 06/M01 A3013 RMK A01 T00611006  RH  063%=      5-min Rain = 0
KPPS 171255Z 00018G25KT 06/M01 A3013 RMK A01 T00601005  RH  063%=      5-min Rain = 0
KPPS 171300Z 00018KT 06/M01 A3013 RMK A01 T00601005  RH  064%=      5-min Rain = 0
KPPS 171305Z 00018KT 06/M00 A3014 RMK A01 T00591004  RH  064%=      5-min Rain = 0
KPPS 171310Z 00018G23KT 06/M00 A3014 RMK A01 T00581004  RH  065%=      5-min Rain = 0
KPPS 171315Z 00017G22KT 06/M00 A3015 RMK A01 T00571004  RH  066%=      5-min Rain = 0
KPPS 171320Z 00016KT 06/M00 A3015 RMK A01 T00551003  RH  067%=      5-min Rain = 0
KPPS 171325Z 00017G22KT 06/M00 A3015 RMK A01 T00551003  RH  067%=      5-min Rain = 0
KPPS 171330Z 00016G22KT 06/M00 A3016 RMK A01 T00551003  RH  067%=      5-min Rain = 0
KPPS 171335Z 00017G22KT 06/M00 A3016 RMK A01 T00551002  RH  068%=      5-min Rain = 0
KPPS 171340Z 00018G24KT 06/M00 A3016 RMK A01 T00551001  RH  068%=      5-min Rain = 0
KPPS 171345Z 00017G22KT 06/M00 A3017 RMK A01 T00561001  RH  068%=      5-min Rain = 0
KPPS 171350Z 00016G21KT 06/00 A3017 RMK A01 T00560000  RH  068%=      5-min Rain = 0
KPPS 171355Z 00017KT 06/00 A3017 RMK A01 T00570001  RH  068%=      5-min Rain = 0
KPPS 171400Z 01016G22KT 06/00 A3017 RMK A01 T00570001  RH  068%=      5-min Rain = 0
KPPS 171405Z 00016G21KT 06/00 A3018 RMK A01 T00580002  RH  068%=      5-min Rain = 0
KPPS 171410Z 00017KT 06/00 A3018 RMK A01 T00590003  RH  068%=      5-min Rain = 0
KPPS 171415Z 00017G23KT 06/00 A3018 RMK A01 T00600003  RH  068%=      5-min Rain = 0
KPPS 171420Z 36018G23KT 06/00 A3018 RMK A01 T00610004  RH  067%=      5-min Rain = 0
KPPS 171425Z 36017KT 06/00 A3019 RMK A01 T00620004  RH  067%=      5-min Rain = 0
KPPS 171430Z 36019G26KT 06/00 A3019 RMK A01 T00630004  RH  067%=      5-min Rain = 0
KPPS 171435Z 00017G22KT 07/01 A3019 RMK A01 T00650005  RH  066%=      5-min Rain = 0
KPPS 171440Z 00017G23KT 07/01 A3019 RMK A01 T00660005  RH  066%=      5-min Rain = 0
KPPS 171445Z 01018G24KT 07/01 A3019 RMK A01 T00670005  RH  066%=      5-min Rain = 0
KPPS 171450Z 00018G24KT 07/01 A3019 RMK A01 T00690006  RH  065%=      5-min Rain = 0
KPPS 171455Z 00018KT 07/01 A302 RMK A01 T00700007  RH  065%=      5-min Rain = 0
KPPS 171500Z 01018G25KT 07/01 A302 RMK A01 T00720007  RH  064%=      5-min Rain = 0
KPPS 171505Z 01018G23KT 07/01 A302 RMK A01 T00730008  RH  064%=      5-min Rain = 0
KPPS 171510Z 01015G21KT 08/01 A302 RMK A01 T00760009  RH  063%=      5-min Rain = 0
KPPS 171515Z 01016G21KT 08/01 A3021 RMK A01 T00770009  RH  063%=      5-min Rain = 0
KPPS 171520Z 02016G24KT 08/01 A3021 RMK A01 T00790009  RH  062%=      5-min Rain = 0
KPPS 171525Z 01017G27KT 08/01 A3021 RMK A01 T00810010  RH  062%=      5-min Rain = 0
KPPS 171530Z 01018G24KT 08/01 A3021 RMK A01 T00800009  RH  062%=      5-min Rain = 0
KPPS 171535Z 02017G23KT 08/01 A3021 RMK A01 T00810010  RH  062%=      5-min Rain = 0
KPPS 171540Z 01018G23KT 08/01 A3021 RMK A01 T00820010  RH  061%=      5-min Rain = 0
KPPS 171545Z 01015G22KT 08/01 A3022 RMK A01 T00840011  RH  061%=      5-min Rain = 0
KPPS 171550Z 02016G22KT 09/01 A3022 RMK A01 T00870011  RH  060%=      5-min Rain = 0
KPPS 171555Z 02015G21KT 09/01 A3021 RMK A01 T00880012  RH  060%=      5-min Rain = 0
KPPS 171600Z 01015G23KT 09/01 A3021 RMK A01 T00900012  RH  059%=      5-min Rain = 0
KPPS 171605Z 01016G21KT 09/01 A3021 RMK A01 T00910012  RH  059%=      5-min Rain = 0
KPPS 171610Z 01017KT 09/01 A3022 RMK A01 T00910012  RH  058%=      5-min Rain = 0
KPPS 171615Z 01016G21KT 09/01 A3021 RMK A01 T00920012  RH  058%=      5-min Rain = 0
KPPS 171620Z 01016G21KT 09/01 A3021 RMK A01 T00940013  RH  057%=      5-min Rain = 0
KPPS 171625Z 01015G22KT 10/01 A3021 RMK A01 T00970014  RH  057%=      5-min Rain = 0
KPPS 171630Z 00017KT 10/01 A3021 RMK A01 T00990013  RH  056%=      5-min Rain = 0
KPPS 171635Z 01016G22KT 10/01 A3021 RMK A01 T01010013  RH  055%=      5-min Rain = 0
KPPS 171640Z 01013G18KT 10/01 A3021 RMK A01 T01020013  RH  055%=      5-min Rain = 0
KPPS 171645Z 01012G19KT 11/02 A3021 RMK A01 T01050015  RH  054%=      5-min Rain = 0
KPPS 171650Z 01012G18KT 11/02 A3021 RMK A01 T01080016  RH  054%=      5-min Rain = 0
KPPS 171655Z 02011G16KT 11/02 A3021 RMK A01 T01080015  RH  053%=      5-min Rain = 0
KPPS 171700Z 01013G18KT 11/02 A3021 RMK A01 T01090015  RH  053%=      5-min Rain = 0
KPPS 171705Z 01011KT 11/02 A3021 RMK A01 T01110016  RH  053%=      5-min Rain = 0
KPPS 171710Z 01012G17KT 11/02 A3021 RMK A01 T01140016  RH  052%=      5-min Rain = 0
KPPS 171715Z 02013G19KT 11/01 A3021 RMK A01 T01130014  RH  051%=      5-min Rain = 0
KPPS 171720Z 02011G17KT 11/02 A3021 RMK A01 T01140015  RH  051%=      5-min Rain = 0
KPPS 171725Z 02011KT 12/02 A302 RMK A01 T01160016  RH  051%=      5-min Rain = 0
KPPS 171730Z 02010KT 12/02 A302 RMK A01 T01200017  RH  050%=      5-min Rain = 0
KPPS 171735Z 02011G17KT 12/02 A302 RMK A01 T01210015  RH  049%=      5-min Rain = 0
KPPS 171740Z 01013G18KT 13/02 A302 RMK A01 T01250017  RH  049%=      5-min Rain = 0
KPPS 171745Z 02011G17KT 12/02 A3019 RMK A01 T01220015  RH  049%=      5-min Rain = 0
KPPS 171750Z 02012G17KT 13/02 A3019 RMK A01 T01260017  RH  048%=      5-min Rain = 0
KPPS 171755Z 02012G20KT 13/02 A3019 RMK A01 T01250015  RH  048%=      5-min Rain = 0
KPPS 171800Z 01012KT 13/02 A3019 RMK A01 T01290017  RH  047%=      5-min Rain = 0
KPPS 171805Z 02011G16KT 13/02 A3019 RMK A01 T01280015  RH  047%=      5-min Rain = 0
KPPS 171810Z 02011KT 13/02 A3018 RMK A01 T01300015  RH  046%=      5-min Rain = 0
KPPS 171815Z 02012G17KT 13/02 A3018 RMK A01 T01310015  RH  046%=      5-min Rain = 0
KPPS 171820Z 02011G16KT 13/01 A3018 RMK A01 T01300014  RH  046%=      5-min Rain = 0
KPPS 171825Z 02008G14KT 13/02 A3018 RMK A01 T01310017  RH  046%=      5-min Rain = 0
KPPS 171830Z 02010KT 13/02 A3017 RMK A01 T01340016  RH  045%=      5-min Rain = 0
KPPS 171835Z 02009G14KT 13/02 A3017 RMK A01 T01340015  RH  045%=      5-min Rain = 0
KPPS 171840Z 03009G14KT 14/02 A3017 RMK A01 T01360015  RH  045%=      5-min Rain = 0
KPPS 171845Z 02008G14KT 14/02 A3017 RMK A01 T01380015  RH  044%=      5-min Rain = 0
KPPS 171850Z 02009KT 14/01 A3017 RMK A01 T01390014  RH  043%=      5-min Rain = 0
KPPS 171855Z 02009KT 14/01 A3016 RMK A01 T01390014  RH  043%=      5-min Rain = 0
KPPS 171900Z 02007KT 14/02 A3016 RMK A01 T01420015  RH  043%=      5-min Rain = 0
KPPS 171905Z 01008KT 14/01 A3017 RMK A01 T01410014  RH  043%=      5-min Rain = 0
KPPS 171910Z 01007KT 14/02 A3016 RMK A01 T01440015  RH  042%=      5-min Rain = 0
KPPS 171915Z 01007KT 14/01 A3016 RMK A01 T01420014  RH  042%=      5-min Rain = 0
KPPS 171920Z 02009KT 15/01 A3016 RMK A01 T01460014  RH  041%=      5-min Rain = 0
KPPS 171925Z 01007G13KT 14/01 A3015 RMK A01 T01440013  RH  042%=      5-min Rain = 0
KPPS 171930Z 01009KT 15/01 A3015 RMK A01 T01460013  RH  041%=      5-min Rain = 0
KPPS 171935Z 36009KT 15/01 A3015 RMK A01 T01480013  RH  041%=      5-min Rain = 0
KPPS 171940Z 01006KT 15/01 A3015 RMK A01 T01490014  RH  041%=      5-min Rain = 0
KPPS 171945Z 01006G11KT 15/02 A3015 RMK A01 T01520015  RH  040%=      5-min Rain = 0
KPPS 171950Z 02008KT 15/02 A3015 RMK A01 T01510015  RH  040%=      5-min Rain = 0
KPPS 171955Z 03006KT 15/02 A3015 RMK A01 T01540015  RH  040%=      5-min Rain = 0
KPPS 172000Z 02008KT 15/01 A3014 RMK A01 T01510012  RH  039%=      5-min Rain = 0
KPPS 172005Z 02006KT 15/01 A3014 RMK A01 T01520014  RH  040%=      5-min Rain = 0
KPPS 172010Z 00006KT 15/02 A3014 RMK A01 T01520015  RH  040%=      5-min Rain = 0
KPPS 172015Z 01004KT 15/01 A3014 RMK A01 T01510014  RH  040%=      5-min Rain = 0
KPPS 172020Z 34006KT 16/02 A3014 RMK A01 T01550017  RH  040%=      5-min Rain = 0
KPPS 172025Z 01007KT 16/02 A3014 RMK A01 T01610018  RH  039%=      5-min Rain = 0
KPPS 172030Z 02006KT 16/01 A3014 RMK A01 T01560014  RH  039%=      5-min Rain = 0
KPPS 172035Z 03004KT 16/01 A3014 RMK A01 T01550012  RH  039%=      5-min Rain = 0
KPPS 172040Z 01004G9KT 16/01 A3014 RMK A01 T01560014  RH  039%=      5-min Rain = 0
KPPS 172045Z 35007KT 16/02 A3014 RMK A01 T01560015  RH  039%=      5-min Rain = 0
KPPS 172050Z 01003KT 16/01 A3013 RMK A01 T01560014  RH  039%=      5-min Rain = 0
KPPS 172055Z 01006KT 16/02 A3013 RMK A01 T01580015  RH  038%=      5-min Rain = 0
KPPS 172100Z 01004KT 16/01 A3013 RMK A01 T01570014  RH  038%=      5-min Rain = 0
KPPS 172105Z 22002KT 16/01 A3013 RMK A01 T01580013  RH  038%=      5-min Rain = 0
KPPS 172110Z 07005KT 16/01 A3012 RMK A01 T01590013  RH  038%=      5-min Rain = 0
KPPS 172115Z 09005KT 16/01 A3012 RMK A01 T01590012  RH  038%=      5-min Rain = 0
KPPS 172120Z 08003KT 16/01 A3013 RMK A01 T01580011  RH  037%=      5-min Rain = 0
KPPS 172125Z 12004KT 16/01 A3012 RMK A01 T01590011  RH  037%=      5-min Rain = 0
KPPS 172130Z 11002KT 16/01 A3012 RMK A01 T01600012  RH  037%=      5-min Rain = 0
KPPS 172135Z 11002KT 16/01 A3012 RMK A01 T01600012  RH  037%=      5-min Rain = 0
KPPS 172140Z 12000KT 17/01 A3012 RMK A01 T01660012  RH  036%=      5-min Rain = 0
KPPS 172145Z 01002KT 16/01 A3011 RMK A01 T01630013  RH  037%=      5-min Rain = 0
KPPS 172150Z 35004KT 16/01 A3012 RMK A01 T01580014  RH  038%=      5-min Rain = 0
KPPS 172155Z 34002KT 16/01 A3012 RMK A01 T01570013  RH  038%=      5-min Rain = 0
KPPS 172200Z 02003KT 16/01 A3012 RMK A01 T01560013  RH  038%=      5-min Rain = 0
KPPS 172205Z 05001KT 16/01 A3011 RMK A01 T01550012  RH  038%=      5-min Rain = 0
KPPS 172210Z 09002KT 16/01 A3011 RMK A01 T01580013  RH  038%=      5-min Rain = 0
KPPS 172215Z 10002KT 16/01 A3011 RMK A01 T01600012  RH  037%=      5-min Rain = 0
KPPS 172220Z 13002KT 16/01 A3011 RMK A01 T01600013  RH  037%=      5-min Rain = 0
KPPS 172225Z 04001KT 16/01 A3011 RMK A01 T01610013  RH  037%=      5-min Rain = 0
KPPS 172230Z 35001KT 16/01 A3011 RMK A01 T01590013  RH  038%=      5-min Rain = 0
KPPS 172235Z 28003KT 16/02 A301 RMK A01 T01610015  RH  038%=      5-min Rain = 0
KPPS 172240Z 26005KT 16/02 A301 RMK A01 T01570015  RH  039%=      5-min Rain = 0
KPPS 172245Z 25004KT 15/01 A301 RMK A01 T01520014  RH  040%=      5-min Rain = 0
KPPS 172250Z 24003KT 15/01 A301 RMK A01 T01520014  RH  040%=      5-min Rain = 0
KPPS 172255Z 24002KT 15/02 A301 RMK A01 T01540015  RH  039%=      5-min Rain = 0
KPPS 172300Z 24002KT 15/01 A301 RMK A01 T01540013  RH  039%=      5-min Rain = 0
KPPS 172305Z 25001KT 15/02 A301 RMK A01 T01540015  RH  039%=      5-min Rain = 0
KPPS 172310Z 23001KT 15/01 A301 RMK A01 T01530014  RH  040%=      5-min Rain = 0
KPPS 172315Z 23001KT 15/01 A301 RMK A01 T01490013  RH  040%=      5-min Rain = 0
KPPS 172320Z 23001KT 15/01 A301 RMK A01 T01480012  RH  040%=      5-min Rain = 0
KPPS 172325Z 23001KT 15/01 A301 RMK A01 T01450012  RH  041%=      5-min Rain = 0
KPPS 172330Z 23002KT 14/01 A301 RMK A01 T01430012  RH  042%=      5-min Rain = 0
KPPS 172335Z 23002KT 14/01 A3011 RMK A01 T01410011  RH  042%=      5-min Rain = 0
KPPS 172340Z 23001KT 14/01 A3011 RMK A01 T01400011  RH  042%=      5-min Rain = 0
KPPS 172345Z 23001KT 14/01 A3011 RMK A01 T01400011  RH  042%=      5-min Rain = 0
KPPS 172350Z 23001KT 14/01 A3011 RMK A01 T01380011  RH  042%=      5-min Rain = 0
KPPS 172355Z 23001KT 14/01 A3011 RMK A01 T01350011  RH  043%=      5-min Rain = 0
KPPS 180000Z 20002KT 13/01 A3011 RMK A01 T01330011  RH  044%=      5-min Rain = 0
KPPS 180005Z 20003KT 13/01 A3011 RMK A01 T01300011  RH  045%=      5-min Rain = 0
KPPS 180010Z 20002KT 13/01 A3011 RMK A01 T01250011  RH  046%=      5-min Rain = 0
KPPS 180015Z 20002KT 12/01 A3011 RMK A01 T01220011  RH  047%=      5-min Rain = 0
KPPS 180020Z 20001KT 12/01 A3011 RMK A01 T01180011  RH  048%=      5-min Rain = 0
KPPS 180025Z 20001KT 12/01 A3011 RMK A01 T01160011  RH  049%=      5-min Rain = 0
KPPS 180030Z 20002KT 11/01 A3011 RMK A01 T01140011  RH  050%=      5-min Rain = 0
KPPS 180035Z 17004KT 11/01 A3011 RMK A01 T01120011  RH  050%=      5-min Rain = 0
KPPS 180040Z 17004KT 11/01 A3011 RMK A01 T01100011  RH  051%=      5-min Rain = 0
KPPS 180045Z 16003KT 11/01 A3011 RMK A01 T01060012  RH  053%=      5-min Rain = 0
KPPS 180050Z 13004KT 10/01 A3011 RMK A01 T01030012  RH  054%=      5-min Rain = 0
KPPS 180055Z 12004KT 10/01 A3011 RMK A01 T00980011  RH  055%=      5-min Rain = 0
KPPS 180100Z 12004KT 10/01 A3011 RMK A01 T00980011  RH  055%=      5-min Rain = 0
KPPS 180105Z 12005KT 10/01 A3011 RMK A01 T00990010  RH  055%=      5-min Rain = 0
KPPS 180110Z 12005KT 10/01 A3011 RMK A01 T00970010  RH  055%=      5-min Rain = 0
KPPS 180115Z 12005KT 09/01 A3011 RMK A01 T00940010  RH  056%=      5-min Rain = 0
KPPS 180120Z 12005KT 09/01 A3011 RMK A01 T00910010  RH  058%=      5-min Rain = 0
KPPS 180125Z 13006KT 09/01 A3011 RMK A01 T00890009  RH  058%=      5-min Rain = 0
KPPS 180130Z 14006KT 09/01 A3011 RMK A01 T00870009  RH  059%=      5-min Rain = 0
KPPS 180135Z 15006KT 09/01 A3011 RMK A01 T00850009  RH  059%=      5-min Rain = 0
KPPS 180140Z 15005KT 08/01 A3011 RMK A01 T00830008  RH  060%=      5-min Rain = 0
KPPS 180145Z 14005KT 08/01 A3011 RMK A01 T00800007  RH  061%=      5-min Rain = 0
KPPS 180150Z 15006KT 08/01 A3012 RMK A01 T00810010  RH  062%=      5-min Rain = 0
KPPS 180155Z 16007KT 08/01 A3012 RMK A01 T00810009  RH  062%=      5-min Rain = 0
KPPS 180200Z 16006KT 08/01 A3011 RMK A01 T00800009  RH  062%=      5-min Rain = 0
KPPS 180205Z 16006KT 08/01 A3012 RMK A01 T00770008  RH  062%=      5-min Rain = 0
KPPS 180210Z 16005KT 08/01 A3012 RMK A01 T00770008  RH  062%=      5-min Rain = 0
KPPS 180215Z 17005KT 08/01 A3012 RMK A01 T00780008  RH  062%=      5-min Rain = 0
KPPS 180220Z 17005KT 08/01 A3012 RMK A01 T00790008  RH  061%=      5-min Rain = 0
KPPS 180225Z 17005KT 08/01 A3012 RMK A01 T00810008  RH  061%=      5-min Rain = 0
KPPS 180230Z 17005KT 08/01 A3012 RMK A01 T00830008  RH  060%=      5-min Rain = 0
KPPS 180235Z 18005KT 08/01 A3012 RMK A01 T00830008  RH  060%=      5-min Rain = 0
KPPS 180240Z 18005KT 08/01 A3013 RMK A01 T00840008  RH  060%=      5-min Rain = 0
KPPS 180245Z 18005KT 08/01 A3013 RMK A01 T00780006  RH  061%=      5-min Rain = 0
KPPS 180250Z 18006KT 07/01 A3013 RMK A01 T00720006  RH  064%=      5-min Rain = 0
KPPS 180255Z 19006KT 07/01 A3013 RMK A01 T00740008  RH  063%=      5-min Rain = 0
KPPS 180300Z 19005KT 08/01 A3013 RMK A01 T00760007  RH  063%=      5-min Rain = 0
KPPS 180305Z 20005KT 08/01 A3013 RMK A01 T00760007  RH  063%=      5-min Rain = 0
KPPS 180310Z 20005KT 07/01 A3013 RMK A01 T00740007  RH  063%=      5-min Rain = 0
KPPS 180315Z 20005KT 07/01 A3013 RMK A01 T00700006  RH  065%=      5-min Rain = 0
KPPS 180320Z 20005KT 07/01 A3013 RMK A01 T00680007  RH  066%=      5-min Rain = 0
KPPS 180325Z 20004KT 06/01 A3013 RMK A01 T00640006  RH  067%=      5-min Rain = 0
KPPS 180330Z 21004KT 06/01 A3013 RMK A01 T00630007  RH  068%=      5-min Rain = 0
KPPS 180335Z 21003KT 06/01 A3013 RMK A01 T00630006  RH  068%=      5-min Rain = 0
KPPS 180340Z 21004KT 06/01 A3013 RMK A01 T00620007  RH  068%=      5-min Rain = 0
KPPS 180345Z 21004KT 06/01 A3013 RMK A01 T00630007  RH  068%=      5-min Rain = 0
KPPS 180350Z 21003KT 06/01 A3013 RMK A01 T00620006  RH  068%=      5-min Rain = 0
KPPS 180355Z 21004KT 06/01 A3012 RMK A01 T00610007  RH  069%=      5-min Rain = 0
KPPS 180400Z 21005KT 06/01 A3012 RMK A01 T00620007  RH  069%=      5-min Rain = 0
KPPS 180405Z 21006KT 06/01 A3012 RMK A01 T00620006  RH  068%=      5-min Rain = 0
KPPS 180410Z 21006KT 06/01 A3012 RMK A01 T00610006  RH  069%=      5-min Rain = 0
KPPS 180415Z 21007KT 06/01 A3012 RMK A01 T00610006  RH  069%=      5-min Rain = 0
KPPS 180420Z 21006KT 06/01 A3011 RMK A01 T00620007  RH  069%=      5-min Rain = 0
KPPS 180425Z 21006KT 06/01 A3011 RMK A01 T00620007  RH  069%=      5-min Rain = 0
KPPS 180430Z 21006KT 06/01 A3011 RMK A01 T00600007  RH  069%=      5-min Rain = 0
KPPS 180435Z 21007KT 06/01 A3011 RMK A01 T00590007  RH  070%=      5-min Rain = 0
KPPS 180440Z 21007KT 06/01 A3011 RMK A01 T00570005  RH  070%=      5-min Rain = 0
KPPS 180445Z 21007KT 06/01 A3011 RMK A01 T00560005  RH  071%=      5-min Rain = 0
KPPS 180450Z 22007KT 05/00 A3011 RMK A01 T00530004  RH  072%=      5-min Rain = 0
KPPS 180455Z 22006KT 05/00 A3011 RMK A01 T00500003  RH  073%=      5-min Rain = 0
KPPS 180500Z 22006KT 05/00 A3011 RMK A01 T00510004  RH  073%=      5-min Rain = 0
KPPS 180505Z 22007KT 05/00 A3011 RMK A01 T00530004  RH  072%=      5-min Rain = 0
KPPS 180510Z 22006KT 05/00 A3011 RMK A01 T00520004  RH  072%=      5-min Rain = 0
KPPS 180515Z 22006KT 05/00 A3011 RMK A01 T00520004  RH  072%=      5-min Rain = 0
KPPS 180520Z 22006KT 05/00 A3011 RMK A01 T00530004  RH  072%=      5-min Rain = 0
KPPS 180525Z 22006KT 05/00 A3011 RMK A01 T00510003  RH  072%=      5-min Rain = 0
KPPS 180530Z 22006KT 05/00 A301 RMK A01 T00510003  RH  072%=      5-min Rain = 0
KPPS 180535Z 21006KT 05/00 A301 RMK A01 T00530004  RH  071%=      5-min Rain = 0
KPPS 180540Z 21006KT 05/00 A301 RMK A01 T00540004  RH  071%=      5-min Rain = 0
KPPS 180545Z 21005KT 05/00 A3009 RMK A01 T00540004  RH  071%=      5-min Rain = 0
KPPS 180550Z 21004KT 05/00 A3009 RMK A01 T00500002  RH  072%=      5-min Rain = 0
KPPS 180555Z 21005KT 05/00 A3009 RMK A01 T00490003  RH  073%=      5-min Rain = 0

Page generated in 0.0093 seconds.